sensor_id;sensor_type;location;lat;lon;timestamp;pressure;altitude;pressure_sealevel;temperature;humidity
34674;BME280;20879;55.668;37.858;2023-02-04T00:00:52;99238.41;;;0.63;86.77
34674;BME280;20879;55.668;37.858;2023-02-04T00:03:21;99242.81;;;0.72;86.53
34674;BME280;20879;55.668;37.858;2023-02-04T00:05:50;99241.16;;;0.76;86.74
34674;BME280;20879;55.668;37.858;2023-02-04T00:08:20;99243.66;;;0.73;86.42
34674;BME280;20879;55.668;37.858;2023-02-04T00:10:51;99214.44;;;0.52;86.81
34674;BME280;20879;55.668;37.858;2023-02-04T00:13:20;99244.63;;;0.79;86.33
34674;BME280;20879;55.668;37.858;2023-02-04T00:15:49;99246.16;;;0.69;86.37
34674;BME280;20879;55.668;37.858;2023-02-04T00:18:19;99247.94;;;0.74;86.76
34674;BME280;20879;55.668;37.858;2023-02-04T00:20:48;99231.41;;;0.50;86.55
34674;BME280;20879;55.668;37.858;2023-02-04T00:23:17;99256.25;;;0.63;87.16
34674;BME280;20879;55.668;37.858;2023-02-04T00:25:46;99257.06;;;0.62;87.60
34674;BME280;20879;55.668;37.858;2023-02-04T00:28:18;99233.84;;;0.47;87.65
34674;BME280;20879;55.668;37.858;2023-02-04T00:30:47;99258.81;;;0.63;87.79
34674;BME280;20879;55.668;37.858;2023-02-04T00:33:21;99262.16;;;0.62;87.98
34674;BME280;20879;55.668;37.858;2023-02-04T00:35:50;99261.31;;;0.62;87.96
34674;BME280;20879;55.668;37.858;2023-02-04T00:38:20;99263.09;;;0.66;87.52
34674;BME280;20879;55.668;37.858;2023-02-04T00:40:49;99238.13;;;0.48;87.89
34674;BME280;20879;55.668;37.858;2023-02-04T00:43:26;99261.38;;;0.65;87.66
34674;BME280;20879;55.668;37.858;2023-02-04T00:46:00;99255.34;;;0.61;87.71
34674;BME280;20879;55.668;37.858;2023-02-04T00:48:29;99266.41;;;0.60;87.47
34674;BME280;20879;55.668;37.858;2023-02-04T00:51:01;99258.75;;;0.60;87.37
34674;BME280;20879;55.668;37.858;2023-02-04T00:53:32;99264.78;;;0.67;87.65
34674;BME280;20879;55.668;37.858;2023-02-04T00:56:01;99262.06;;;0.56;87.25
34674;BME280;20879;55.668;37.858;2023-02-04T00:58:32;99257.63;;;0.44;87.51
34674;BME280;20879;55.668;37.858;2023-02-04T01:01:02;99274.00;;;0.57;87.56
34674;BME280;20879;55.668;37.858;2023-02-04T01:03:31;99270.44;;;0.49;87.86
34674;BME280;20879;55.668;37.858;2023-02-04T01:06:01;99258.34;;;0.39;87.73
34674;BME280;20879;55.668;37.858;2023-02-04T01:08:35;99255.00;;;0.41;88.26
34674;BME280;20879;55.668;37.858;2023-02-04T01:11:04;99291.03;;;0.63;88.23
34674;BME280;20879;55.668;37.858;2023-02-04T01:13:35;99288.50;;;0.63;87.61
34674;BME280;20879;55.668;37.858;2023-02-04T01:16:05;99292.78;;;0.65;87.83
34674;BME280;20879;55.668;37.858;2023-02-04T01:18:34;99297.09;;;0.68;87.70
34674;BME280;20879;55.668;37.858;2023-02-04T01:21:04;99298.00;;;0.72;87.77
34674;BME280;20879;55.668;37.858;2023-02-04T01:23:33;99295.41;;;0.70;87.37
34674;BME280;20879;55.668;37.858;2023-02-04T01:26:08;99304.66;;;0.63;87.04
34674;BME280;20879;55.668;37.858;2023-02-04T01:28:39;99295.13;;;0.53;87.31
34674;BME280;20879;55.668;37.858;2023-02-04T01:31:13;99293.41;;;0.52;87.60
34674;BME280;20879;55.668;37.858;2023-02-04T01:33:43;99283.88;;;0.42;87.83
34674;BME280;20879;55.668;37.858;2023-02-04T01:36:18;99288.28;;;0.50;87.86
34674;BME280;20879;55.668;37.858;2023-02-04T01:38:48;99284.13;;;0.56;87.41
34674;BME280;20879;55.668;37.858;2023-02-04T01:41:22;99301.25;;;0.63;87.26
34674;BME280;20879;55.668;37.858;2023-02-04T01:43:54;99312.28;;;0.62;87.23
34674;BME280;20879;55.668;37.858;2023-02-04T01:46:24;99307.97;;;0.59;87.52
34674;BME280;20879;55.668;37.858;2023-02-04T01:48:53;99307.97;;;0.58;87.18
34674;BME280;20879;55.668;37.858;2023-02-04T01:51:25;99307.03;;;0.54;87.39
34674;BME280;20879;55.668;37.858;2023-02-04T01:54:09;99316.47;;;0.60;87.42
34674;BME280;20879;55.668;37.858;2023-02-04T01:56:46;99312.16;;;0.56;87.57
34674;BME280;20879;55.668;37.858;2023-02-04T01:59:19;99315.47;;;0.50;87.36
34674;BME280;20879;55.668;37.858;2023-02-04T02:01:53;99302.63;;;0.47;87.77
34674;BME280;20879;55.668;37.858;2023-02-04T02:04:29;99325.00;;;0.60;87.81
34674;BME280;20879;55.668;37.858;2023-02-04T02:07:03;99310.44;;;0.55;87.40
34674;BME280;20879;55.668;37.858;2023-02-04T02:09:35;99329.34;;;0.66;87.43
34674;BME280;20879;55.668;37.858;2023-02-04T02:12:05;99335.28;;;0.65;87.02
34674;BME280;20879;55.668;37.858;2023-02-04T02:14:42;99335.28;;;0.65;87.48
34674;BME280;20879;55.668;37.858;2023-02-04T02:17:16;99333.50;;;0.62;87.33
34674;BME280;20879;55.668;37.858;2023-02-04T02:19:46;99340.34;;;0.63;87.37
34674;BME280;20879;55.668;37.858;2023-02-04T02:22:19;99339.38;;;0.58;87.33
34674;BME280;20879;55.668;37.858;2023-02-04T02:24:54;99339.41;;;0.60;87.68
34674;BME280;20879;55.668;37.858;2023-02-04T02:27:29;99344.41;;;0.55;87.20
34674;BME280;20879;55.668;37.858;2023-02-04T02:29:58;99324.59;;;0.40;87.48
34674;BME280;20879;55.668;37.858;2023-02-04T02:32:29;99346.16;;;0.58;87.13
34674;BME280;20879;55.668;37.858;2023-02-04T02:34:59;99345.31;;;0.57;86.88
34674;BME280;20879;55.668;37.858;2023-02-04T02:37:30;99339.28;;;0.54;87.18
34674;BME280;20879;55.668;37.858;2023-02-04T02:40:09;99346.91;;;0.52;87.27
34674;BME280;20879;55.668;37.858;2023-02-04T02:42:39;99355.19;;;0.40;87.30
34674;BME280;20879;55.668;37.858;2023-02-04T02:45:21;99344.88;;;0.34;87.56
34674;BME280;20879;55.668;37.858;2023-02-04T02:47:51;99362.66;;;0.32;88.09
34674;BME280;20879;55.668;37.858;2023-02-04T02:50:23;99365.28;;;0.36;87.87
34674;BME280;20879;55.668;37.858;2023-02-04T02:53:00;99323.06;;;0.06;88.13
34674;BME280;20879;55.668;37.858;2023-02-04T02:55:32;99346.22;;;0.16;88.44
34674;BME280;20879;55.668;37.858;2023-02-04T02:58:04;99364.16;;;0.23;88.64
34674;BME280;20879;55.668;37.858;2023-02-04T03:00:33;99365.84;;;0.22;88.64
34674;BME280;20879;55.668;37.858;2023-02-04T03:03:05;99368.34;;;0.19;89.07
34674;BME280;20879;55.668;37.858;2023-02-04T03:05:44;99351.09;;;0.07;89.16
34674;BME280;20879;55.668;37.858;2023-02-04T03:08:15;99344.22;;;0.02;89.19
34674;BME280;20879;55.668;37.858;2023-02-04T03:10:47;99358.91;;;0.15;89.48
34674;BME280;20879;55.668;37.858;2023-02-04T03:13:17;99372.69;;;0.25;89.16
34674;BME280;20879;55.668;37.858;2023-02-04T03:15:48;99381.25;;;0.28;89.08
34674;BME280;20879;55.668;37.858;2023-02-04T03:18:18;99373.69;;;0.31;88.88
34674;BME280;20879;55.668;37.858;2023-02-04T03:20:49;99380.50;;;0.32;88.97
34674;BME280;20879;55.668;37.858;2023-02-04T03:23:19;99388.09;;;0.31;89.01
34674;BME280;20879;55.668;37.858;2023-02-04T03:25:51;99389.84;;;0.33;88.95
34674;BME280;20879;55.668;37.858;2023-02-04T03:28:20;99386.50;;;0.36;89.12
34674;BME280;20879;55.668;37.858;2023-02-04T03:30:49;99390.88;;;0.42;88.97
34674;BME280;20879;55.668;37.858;2023-02-04T03:33:31;99389.13;;;0.41;89.02
34674;BME280;20879;55.668;37.858;2023-02-04T03:36:01;99391.88;;;0.48;89.05
34674;BME280;20879;55.668;37.858;2023-02-04T03:38:31;99399.63;;;0.55;88.75
34674;BME280;20879;55.668;37.858;2023-02-04T03:41:02;99386.75;;;0.48;88.45
34674;BME280;20879;55.668;37.858;2023-02-04T03:43:37;99402.19;;;0.56;88.28
34674;BME280;20879;55.668;37.858;2023-02-04T03:46:06;99397.91;;;0.55;88.52
34674;BME280;20879;55.668;37.858;2023-02-04T03:48:36;99394.50;;;0.53;88.34
34674;BME280;20879;55.668;37.858;2023-02-04T03:51:10;99407.41;;;0.62;87.90
34674;BME280;20879;55.668;37.858;2023-02-04T03:53:44;99409.97;;;0.62;87.84
34674;BME280;20879;55.668;37.858;2023-02-04T03:56:19;99404.81;;;0.59;88.14
34674;BME280;20879;55.668;37.858;2023-02-04T03:58:48;99415.94;;;0.64;87.80
34674;BME280;20879;55.668;37.858;2023-02-04T04:01:17;99418.47;;;0.64;87.78
34674;BME280;20879;55.668;37.858;2023-02-04T04:03:46;99417.63;;;0.64;87.70
34674;BME280;20879;55.668;37.858;2023-02-04T04:06:21;99415.94;;;0.64;87.67
34674;BME280;20879;55.668;37.858;2023-02-04T04:08:50;99395.38;;;0.55;87.62
34674;BME280;20879;55.668;37.858;2023-02-04T04:11:27;99424.50;;;0.68;87.78
34674;BME280;20879;55.668;37.858;2023-02-04T04:13:57;99418.56;;;0.67;87.75
34674;BME280;20879;55.668;37.858;2023-02-04T04:16:26;99424.47;;;0.65;87.50
34674;BME280;20879;55.668;37.858;2023-02-04T04:18:56;99426.91;;;0.60;87.25
34674;BME280;20879;55.668;37.858;2023-02-04T04:21:25;99419.91;;;0.50;87.58
34674;BME280;20879;55.668;37.858;2023-02-04T04:24:06;99428.56;;;0.58;87.73
34674;BME280;20879;55.668;37.858;2023-02-04T04:26:38;99430.19;;;0.55;87.96
34674;BME280;20879;55.668;37.858;2023-02-04T04:29:07;99440.47;;;0.59;88.04
34674;BME280;20879;55.668;37.858;2023-02-04T04:31:36;99436.16;;;0.57;87.55
34674;BME280;20879;55.668;37.858;2023-02-04T04:34:05;99443.84;;;0.58;87.93
34674;BME280;20879;55.668;37.858;2023-02-04T04:36:34;99437.53;;;0.41;87.52
34674;BME280;20879;55.668;37.858;2023-02-04T04:39:03;99409.78;;;0.12;87.72
34674;BME280;20879;55.668;37.858;2023-02-04T04:41:33;99383.91;;;-0.07;88.06
34674;BME280;20879;55.668;37.858;2023-02-04T04:44:04;99438.09;;;0.27;88.16
34674;BME280;20879;55.668;37.858;2023-02-04T04:46:35;99442.63;;;0.41;88.29
34674;BME280;20879;55.668;37.858;2023-02-04T04:49:06;99434.88;;;0.34;88.08
34674;BME280;20879;55.668;37.858;2023-02-04T04:51:35;99443.47;;;0.40;87.78
34674;BME280;20879;55.668;37.858;2023-02-04T04:54:05;99422.81;;;0.27;87.69
34674;BME280;20879;55.668;37.858;2023-02-04T04:56:34;99447.84;;;0.47;87.61
34674;BME280;20879;55.668;37.858;2023-02-04T04:59:11;99436.78;;;0.45;87.05
34674;BME280;20879;55.668;37.858;2023-02-04T05:01:40;99449.63;;;0.51;86.97
34674;BME280;20879;55.668;37.858;2023-02-04T05:04:10;99450.41;;;0.47;86.70
34674;BME280;20879;55.668;37.858;2023-02-04T05:06:39;99449.50;;;0.45;86.39
34674;BME280;20879;55.668;37.858;2023-02-04T05:09:08;99461.47;;;0.47;86.21
34674;BME280;20879;55.668;37.858;2023-02-04T05:11:38;99451.13;;;0.40;85.86
34674;BME280;20879;55.668;37.858;2023-02-04T05:14:07;99468.28;;;0.48;85.86
34674;BME280;20879;55.668;37.858;2023-02-04T05:16:38;99442.47;;;0.33;85.01
34674;BME280;20879;55.668;37.858;2023-02-04T05:19:07;99464.09;;;0.52;85.32
34674;BME280;20879;55.668;37.858;2023-02-04T05:21:36;99469.19;;;0.52;84.77
34674;BME280;20879;55.668;37.858;2023-02-04T05:24:05;99476.88;;;0.54;84.92
34674;BME280;20879;55.668;37.858;2023-02-04T05:26:40;99476.91;;;0.55;84.49
34674;BME280;20879;55.668;37.858;2023-02-04T05:29:10;99475.22;;;0.56;84.62
34674;BME280;20879;55.668;37.858;2023-02-04T05:31:41;99471.69;;;0.49;84.01
34674;BME280;20879;55.668;37.858;2023-02-04T05:34:10;99485.47;;;0.57;84.36
34674;BME280;20879;55.668;37.858;2023-02-04T05:36:39;99491.16;;;0.47;83.64
34674;BME280;20879;55.668;37.858;2023-02-04T05:39:09;99489.34;;;0.41;84.22
34674;BME280;20879;55.668;37.858;2023-02-04T05:41:38;99490.91;;;0.34;84.02
34674;BME280;20879;55.668;37.858;2023-02-04T05:44:08;99499.50;;;0.40;83.97
34674;BME280;20879;55.668;37.858;2023-02-04T05:46:37;99502.94;;;0.42;83.54
34674;BME280;20879;55.668;37.858;2023-02-04T05:49:08;99507.19;;;0.41;83.33
34674;BME280;20879;55.668;37.858;2023-02-04T05:51:42;99513.78;;;0.33;82.85
34674;BME280;20879;55.668;37.858;2023-02-04T05:54:11;99516.31;;;0.31;83.35
34674;BME280;20879;55.668;37.858;2023-02-04T05:56:46;99508.56;;;0.27;83.47
34674;BME280;20879;55.668;37.858;2023-02-04T05:59:22;99516.31;;;0.31;82.84
34674;BME280;20879;55.668;37.858;2023-02-04T06:01:51;99512.56;;;0.17;82.13
34674;BME280;20879;55.668;37.858;2023-02-04T06:04:27;99531.50;;;0.28;82.26
34674;BME280;20879;55.668;37.858;2023-02-04T06:06:56;99540.03;;;0.30;82.16
34674;BME280;20879;55.668;37.858;2023-02-04T06:09:26;99537.53;;;0.32;82.22
34674;BME280;20879;55.668;37.858;2023-02-04T06:11:55;99553.75;;;0.36;82.14
34674;BME280;20879;55.668;37.858;2023-02-04T06:14:24;99541.97;;;0.41;82.46
34674;BME280;20879;55.668;37.858;2023-02-04T06:16:53;99553.00;;;0.40;81.95
34674;BME280;20879;55.668;37.858;2023-02-04T06:19:23;99551.38;;;0.43;82.19
34674;BME280;20879;55.668;37.858;2023-02-04T06:21:54;99530.16;;;0.43;81.90
34674;BME280;20879;55.668;37.858;2023-02-04T06:24:23;99561.41;;;0.74;82.12
34674;BME280;20879;55.668;37.858;2023-02-04T06:26:54;99563.25;;;0.81;81.45
34674;BME280;20879;55.668;37.858;2023-02-04T06:29:29;99568.50;;;0.87;81.08
34674;BME280;20879;55.668;37.858;2023-02-04T06:31:58;99565.06;;;0.85;81.45
34674;BME280;20879;55.668;37.858;2023-02-04T06:34:32;99567.75;;;0.93;81.56
34674;BME280;20879;55.668;37.858;2023-02-04T06:37:03;99546.66;;;1.00;81.84
34674;BME280;20879;55.668;37.858;2023-02-04T06:39:33;99570.94;;;1.24;81.66
34674;BME280;20879;55.668;37.858;2023-02-04T06:42:02;99531.50;;;1.08;81.27
34674;BME280;20879;55.668;37.858;2023-02-04T06:44:32;99579.56;;;1.30;80.95
34674;BME280;20879;55.668;37.858;2023-02-04T06:47:06;99568.28;;;1.17;80.80
34674;BME280;20879;55.668;37.858;2023-02-04T06:49:35;99574.06;;;1.10;81.13
34674;BME280;20879;55.668;37.858;2023-02-04T06:52:07;99595.31;;;1.11;81.44
34674;BME280;20879;55.668;37.858;2023-02-04T06:54:37;99580.16;;;1.17;81.70
34674;BME280;20879;55.668;37.858;2023-02-04T06:57:06;99587.88;;;1.21;81.64
34674;BME280;20879;55.668;37.858;2023-02-04T06:59:36;99586.41;;;1.31;81.99
34674;BME280;20879;55.668;37.858;2023-02-04T07:02:07;99584.53;;;1.24;81.55
34674;BME280;20879;55.668;37.858;2023-02-04T07:04:37;99598.88;;;1.17;82.19
34674;BME280;20879;55.668;37.858;2023-02-04T07:07:09;99605.31;;;1.00;81.76
34674;BME280;20879;55.668;37.858;2023-02-04T07:09:39;99597.81;;;1.08;82.20
34674;BME280;20879;55.668;37.858;2023-02-04T07:12:08;99600.22;;;1.00;81.57
34674;BME280;20879;55.668;37.858;2023-02-04T07:14:37;99614.88;;;1.10;81.59
34674;BME280;20879;55.668;37.858;2023-02-04T07:17:06;99600.75;;;1.26;81.56
34674;BME280;20879;55.668;37.858;2023-02-04T07:19:35;99611.59;;;1.59;81.36
34674;BME280;20879;55.668;37.858;2023-02-04T07:22:05;99607.41;;;1.62;80.60
34674;BME280;20879;55.668;37.858;2023-02-04T07:24:36;99613.78;;;1.40;81.13
34674;BME280;20879;55.668;37.858;2023-02-04T07:27:05;99622.44;;;1.06;81.99
34674;BME280;20879;55.668;37.858;2023-02-04T07:29:34;99619.63;;;0.95;82.76
34674;BME280;20879;55.668;37.858;2023-02-04T07:32:04;99621.41;;;0.97;82.95
34674;BME280;20879;55.668;37.858;2023-02-04T07:34:33;99590.44;;;0.82;82.92
34674;BME280;20879;55.668;37.858;2023-02-04T07:37:02;99618.78;;;0.94;83.02
34674;BME280;20879;55.668;37.858;2023-02-04T07:39:32;99633.91;;;0.86;83.24
34674;BME280;20879;55.668;37.858;2023-02-04T07:42:03;99630.41;;;0.83;82.99
34674;BME280;20879;55.668;37.858;2023-02-04T07:44:41;99610.72;;;0.76;83.04
34674;BME280;20879;55.668;37.858;2023-02-04T07:47:11;99631.25;;;0.82;82.94
34674;BME280;20879;55.668;37.858;2023-02-04T07:49:41;99631.16;;;0.79;82.75
34674;BME280;20879;55.668;37.858;2023-02-04T07:52:10;99637.31;;;0.87;82.30
34674;BME280;20879;55.668;37.858;2023-02-04T07:54:40;99621.97;;;0.84;81.81
34674;BME280;20879;55.668;37.858;2023-02-04T07:57:11;99635.53;;;0.83;81.07
34674;BME280;20879;55.668;37.858;2023-02-04T07:59:40;99621.28;;;0.55;80.66
34674;BME280;20879;55.668;37.858;2023-02-04T08:02:09;99637.72;;;0.67;79.83
34674;BME280;20879;55.668;37.858;2023-02-04T08:04:46;99647.22;;;0.75;79.31
34674;BME280;20879;55.668;37.858;2023-02-04T08:07:15;99647.47;;;0.85;78.59
34674;BME280;20879;55.668;37.858;2023-02-04T08:09:45;99648.47;;;0.92;77.68
34674;BME280;20879;55.668;37.858;2023-02-04T08:12:16;99647.16;;;1.10;77.03
34674;BME280;20879;55.668;37.858;2023-02-04T08:14:45;99640.59;;;1.21;77.03
34674;BME280;20879;55.668;37.858;2023-02-04T08:17:14;99628.75;;;1.23;76.65
34674;BME280;20879;55.668;37.858;2023-02-04T08:19:44;99654.75;;;1.48;76.41
34674;BME280;20879;55.668;37.858;2023-02-04T08:22:13;99649.00;;;1.58;76.09
34674;BME280;20879;55.668;37.858;2023-02-04T08:24:42;99651.75;;;1.67;75.99
34674;BME280;20879;55.668;37.858;2023-02-04T08:27:11;99648.63;;;1.81;76.09
34674;BME280;20879;55.668;37.858;2023-02-04T08:29:43;99661.59;;;1.93;74.39
34674;BME280;20879;55.668;37.858;2023-02-04T08:32:17;99669.19;;;1.90;74.23
34674;BME280;20879;55.668;37.858;2023-02-04T08:35:02;99667.38;;;1.84;73.69
34674;BME280;20879;55.668;37.858;2023-02-04T08:37:32;99655.25;;;1.72;73.05
34674;BME280;20879;55.668;37.858;2023-02-04T08:40:02;99653.28;;;1.59;73.14
34674;BME280;20879;55.668;37.858;2023-02-04T08:42:32;99622.03;;;1.27;73.67
34674;BME280;20879;55.668;37.858;2023-02-04T08:45:03;99674.47;;;1.55;73.94
34674;BME280;20879;55.668;37.858;2023-02-04T08:47:35;99654.91;;;1.54;74.29
34674;BME280;20879;55.668;37.858;2023-02-04T08:50:06;99680.59;;;1.63;74.66
34674;BME280;20879;55.668;37.858;2023-02-04T08:52:35;99676.41;;;1.67;75.06
34674;BME280;20879;55.668;37.858;2023-02-04T08:55:11;99679.25;;;1.81;74.88
34674;BME280;20879;55.668;37.858;2023-02-04T08:57:41;99681.97;;;1.90;75.25
34674;BME280;20879;55.668;37.858;2023-02-04T09:00:14;99685.44;;;1.92;75.45
34674;BME280;20879;55.668;37.858;2023-02-04T09:02:54;99684.41;;;1.84;75.90
34674;BME280;20879;55.668;37.858;2023-02-04T09:05:23;99681.31;;;1.56;76.47
34674;BME280;20879;55.668;37.858;2023-02-04T09:07:53;99688.03;;;1.51;77.26
34674;BME280;20879;55.668;37.858;2023-02-04T09:10:22;99688.84;;;1.50;77.64
34674;BME280;20879;55.668;37.858;2023-02-04T09:12:51;99667.91;;;1.25;77.98
34674;BME280;20879;55.668;37.858;2023-02-04T09:15:24;99692.25;;;1.50;77.48
34674;BME280;20879;55.668;37.858;2023-02-04T09:17:59;99690.13;;;1.31;77.57
34674;BME280;20879;55.668;37.858;2023-02-04T09:20:37;99692.88;;;1.40;77.86
34674;BME280;20879;55.668;37.858;2023-02-04T09:23:06;99643.59;;;1.01;77.96
34674;BME280;20879;55.668;37.858;2023-02-04T09:25:37;99692.81;;;1.37;78.64
34674;BME280;20879;55.668;37.858;2023-02-04T09:28:07;99687.72;;;1.37;78.54
34674;BME280;20879;55.668;37.858;2023-02-04T09:30:42;99688.03;;;1.51;79.35
34674;BME280;20879;55.668;37.858;2023-02-04T09:33:13;99696.25;;;1.39;79.51
34674;BME280;20879;55.668;37.858;2023-02-04T09:35:43;99699.06;;;1.12;81.88
34674;BME280;20879;55.668;37.858;2023-02-04T09:38:17;99669.97;;;1.03;81.55
34674;BME280;20879;55.668;37.858;2023-02-04T09:40:50;99660.56;;;1.01;82.04
34674;BME280;20879;55.668;37.858;2023-02-04T09:43:30;99654.06;;;0.77;83.43
34674;BME280;20879;55.668;37.858;2023-02-04T09:46:02;99696.53;;;1.12;82.80
34674;BME280;20879;55.668;37.858;2023-02-04T09:48:31;99705.13;;;1.17;84.72
34674;BME280;20879;55.668;37.858;2023-02-04T09:51:04;99705.06;;;1.14;83.24
34674;BME280;20879;55.668;37.858;2023-02-04T09:53:44;99717.94;;;1.20;82.79
34674;BME280;20879;55.668;37.858;2023-02-04T09:56:13;99715.94;;;1.45;82.43
34674;BME280;20879;55.668;37.858;2023-02-04T09:58:43;99710.88;;;1.48;79.62
34674;BME280;20879;55.668;37.858;2023-02-04T10:01:16;99717.16;;;1.62;78.83
34674;BME280;20879;55.668;37.858;2023-02-04T10:03:48;99679.41;;;1.47;77.65
34674;BME280;20879;55.668;37.858;2023-02-04T10:06:19;99718.25;;;1.73;76.08
34674;BME280;20879;55.668;37.858;2023-02-04T10:08:50;99718.19;;;1.70;76.37
34674;BME280;20879;55.668;37.858;2023-02-04T10:11:25;99731.72;;;1.66;75.97
34674;BME280;20879;55.668;37.858;2023-02-04T10:13:55;99724.88;;;1.65;76.52
34674;BME280;20879;55.668;37.858;2023-02-04T10:16:29;99729.78;;;1.56;75.92
34674;BME280;20879;55.668;37.858;2023-02-04T10:19:02;99732.06;;;1.42;76.09
34674;BME280;20879;55.668;37.858;2023-02-04T10:21:42;99696.84;;;1.27;76.49
34674;BME280;20879;55.668;37.858;2023-02-04T10:24:14;99741.88;;;1.63;76.41
34674;BME280;20879;55.668;37.858;2023-02-04T10:26:44;99741.50;;;1.48;75.97
34674;BME280;20879;55.668;37.858;2023-02-04T10:29:26;99748.38;;;1.50;75.93
34674;BME280;20879;55.668;37.858;2023-02-04T11:29:32;99778.03;;;0.74;82.92
34674;BME280;20879;55.668;37.858;2023-02-04T11:32:06;99731.31;;;0.40;82.77
34674;BME280;20879;55.668;37.858;2023-02-04T11:34:46;99783.81;;;0.66;83.17
34674;BME280;20879;55.668;37.858;2023-02-04T11:37:35;99784.72;;;0.70;82.85
34674;BME280;20879;55.668;37.858;2023-02-04T11:40:21;99788.47;;;0.83;83.00
34674;BME280;20879;55.668;37.858;2023-02-04T11:42:59;99788.81;;;0.97;81.55
34674;BME280;20879;55.668;37.858;2023-02-04T11:45:42;99783.41;;;0.84;80.87
34674;BME280;20879;55.668;37.858;2023-02-04T11:48:15;99743.69;;;0.59;80.97
34674;BME280;20879;55.668;37.858;2023-02-04T11:50:54;99782.16;;;0.68;81.08
34674;BME280;20879;55.668;37.858;2023-02-04T11:53:27;99796.44;;;0.62;81.14
34674;BME280;20879;55.668;37.858;2023-02-04T11:55:57;99795.75;;;0.36;82.10
34674;BME280;20879;55.668;37.858;2023-02-04T11:58:28;99779.72;;;0.09;82.37
34674;BME280;20879;55.668;37.858;2023-02-04T12:01:00;99812.66;;;0.33;84.00
34674;BME280;20879;55.668;37.858;2023-02-04T12:03:30;99821.41;;;0.43;83.92
34674;BME280;20879;55.668;37.858;2023-02-04T12:06:01;99816.94;;;0.34;85.24
34674;BME280;20879;55.668;37.858;2023-02-04T12:08:32;99824.69;;;0.39;85.31
34674;BME280;20879;55.668;37.858;2023-02-04T12:11:05;99825.56;;;0.40;85.95
34674;BME280;20879;55.668;37.858;2023-02-04T12:13:45;99834.44;;;0.54;85.80
34674;BME280;20879;55.668;37.858;2023-02-04T12:16:19;99789.59;;;0.29;85.80
34674;BME280;20879;55.668;37.858;2023-02-04T12:18:49;99824.00;;;0.45;85.73
34674;BME280;20879;55.668;37.858;2023-02-04T12:21:19;99819.44;;;0.33;86.37
34674;BME280;20879;55.668;37.858;2023-02-04T12:23:54;99830.72;;;0.41;86.10
34674;BME280;20879;55.668;37.858;2023-02-04T12:26:23;99821.25;;;0.37;85.60
34674;BME280;20879;55.668;37.858;2023-02-04T12:28:52;99841.84;;;0.45;85.66
34674;BME280;20879;55.668;37.858;2023-02-04T12:31:25;99847.63;;;0.39;85.70
34674;BME280;20879;55.668;37.858;2023-02-04T12:33:54;99829.00;;;0.11;86.79
34674;BME280;20879;55.668;37.858;2023-02-04T12:36:24;99735.88;;;-0.41;86.53
34674;BME280;20879;55.668;37.858;2023-02-04T12:38:55;99801.91;;;-0.17;87.65
34674;BME280;20879;55.668;37.858;2023-02-04T12:41:25;99839.19;;;0.11;89.00
34674;BME280;20879;55.668;37.858;2023-02-04T12:43:55;99836.09;;;0.22;89.00
34674;BME280;20879;55.668;37.858;2023-02-04T12:53:49;99863.53;;;0.02;89.74
34674;BME280;20879;55.668;37.858;2023-02-04T12:56:19;99857.31;;;-0.08;89.64
34674;BME280;20879;55.668;37.858;2023-02-04T12:58:50;99869.31;;;-0.04;89.80
34674;BME280;20879;55.668;37.858;2023-02-04T13:01:19;99843.28;;;-0.23;91.50
34674;BME280;20879;55.668;37.858;2023-02-04T13:03:48;99872.41;;;-0.14;91.48
34674;BME280;20879;55.668;37.858;2023-02-04T13:06:18;99885.34;;;-0.07;91.23
34674;BME280;20879;55.668;37.858;2023-02-04T13:08:49;99882.84;;;-0.05;91.30
34674;BME280;20879;55.668;37.858;2023-02-04T13:11:23;99883.53;;;-0.11;92.18
34674;BME280;20879;55.668;37.858;2023-02-04T13:13:52;99865.25;;;-0.26;92.02
34674;BME280;20879;55.668;37.858;2023-02-04T13:16:21;99894.56;;;-0.10;92.40
34674;BME280;20879;55.668;37.858;2023-02-04T13:18:51;99893.69;;;-0.11;92.61
34674;BME280;20879;55.668;37.858;2023-02-04T13:21:21;99876.31;;;-0.24;92.77
34674;BME280;20879;55.668;37.858;2023-02-04T13:23:56;99897.19;;;-0.09;93.11
34674;BME280;20879;55.668;37.858;2023-02-04T13:26:25;99890.97;;;-0.17;93.11
34674;BME280;20879;55.668;37.858;2023-02-04T13:28:55;99885.69;;;-0.23;93.19
34674;BME280;20879;55.668;37.858;2023-02-04T13:31:24;99899.31;;;-0.21;93.72
34674;BME280;20879;55.668;37.858;2023-02-04T13:33:53;99893.88;;;-0.33;94.03
34674;BME280;20879;55.668;37.858;2023-02-04T13:36:22;99909.50;;;-0.21;93.64
34674;BME280;20879;55.668;37.858;2023-02-04T13:38:55;99905.03;;;-0.28;94.99
34674;BME280;20879;55.668;37.858;2023-02-04T13:41:32;99880.53;;;-0.52;95.65
34674;BME280;20879;55.668;37.858;2023-02-04T13:44:06;99840.81;;;-0.76;96.60
34674;BME280;20879;55.668;37.858;2023-02-04T13:46:36;99902.06;;;-0.42;97.14
34674;BME280;20879;55.668;37.858;2023-02-04T13:49:06;99905.19;;;-0.51;98.77
34674;BME280;20879;55.668;37.858;2023-02-04T13:51:36;99918.66;;;-0.54;98.94
34674;BME280;20879;55.668;37.858;2023-02-04T13:54:07;99912.50;;;-0.60;100.00
34674;BME280;20879;55.668;37.858;2023-02-04T13:56:36;99896.63;;;-0.79;100.00
34674;BME280;20879;55.668;37.858;2023-02-04T13:59:06;99924.34;;;-0.61;100.00
34674;BME280;20879;55.668;37.858;2023-02-04T14:01:36;99932.75;;;-0.63;100.00
34674;BME280;20879;55.668;37.858;2023-02-04T14:04:05;99929.09;;;-0.72;100.00
34674;BME280;20879;55.668;37.858;2023-02-04T14:06:34;99929.66;;;-0.80;100.00
34674;BME280;20879;55.668;37.858;2023-02-04T14:09:11;99923.16;;;-0.71;100.00
34674;BME280;20879;55.668;37.858;2023-02-04T14:11:40;99866.75;;;-1.10;100.00
34674;BME280;20879;55.668;37.858;2023-02-04T14:14:10;99946.94;;;-0.70;100.00
34674;BME280;20879;55.668;37.858;2023-02-04T14:16:39;99941.03;;;-0.69;100.00
34674;BME280;20879;55.668;37.858;2023-02-04T14:19:19;99953.03;;;-0.65;100.00
34674;BME280;20879;55.668;37.858;2023-02-04T14:21:49;99950.50;;;-0.65;100.00
34674;BME280;20879;55.668;37.858;2023-02-04T14:24:21;99959.09;;;-0.61;100.00